Impacts TAF Board INFO
FOR SITUATIONAL AWARENESS. NOT TO BE USED FOR FLIGHT PLANNING PURPOSES.
IDs:

KLAX - Los Angeles Intl, CA, US

Issued at 1123 UTC 19 Jun 2018
Updated at 1239 UTC 19 Jun 2018
Potential Impact None Slight Moderate High
Time<<20/01Z 20/02Z 20/03Z 20/04Z 20/05Z 20/06Z 20/07Z 20/08Z 20/09Z 20/10Z 20/11Z 20/12Z 20/13Z>>
Type PRVL PRVL PRVL PRVL PRVL PRVL PRVL PRVL PRVL PRVL PRVL PRVL PRVL
VIS >6 >6 >6 >6 5 5 5 5 5 5 5 5 5
CIG -- -- -- -- 7 7 7 7 7 7 7 7 7
Cover SKC SKC SKC SKC OVC OVC OVC OVC OVC OVC OVC OVC OVC
FltCat VFR VFR VFR VFR IFR IFR IFR IFR IFR IFR IFR IFR IFR
WX -- -- -- -- BR BR BR BR BR BR BR BR BR
WDir 260 260 260 260 250 250 250 250 250 250 250 250 250
WSpd 12 12 12 12 7 7 7 7 7 7 7 7 7
WGst -- -- -- -- -- -- -- -- -- -- -- -- --

Raw TAF
KLAX 191123Z 1912/2018 VRB03KT P6SM FEW007 BKN012
  FM191700 24007KT P6SM SKC
  FM191900 26012KT P6SM SKC
  FM200500 25007KT 5SM BR OVC007
  FM201700 26008KT P6SM SCT010


METAR Board
Radar Display
Forecast Discussion

FOR SITUATIONAL AWARENESS. NOT TO BE USED FOR FLIGHT PLANNING PURPOSES.